createdAt,value
2023-11-29T00:00:09.079Z,0.18
2023-11-29T00:02:37.530Z,0.19
2023-11-29T00:05:08.252Z,0.18
2023-11-29T00:07:38.573Z,0.15
2023-11-29T00:10:05.617Z,0.13
2023-11-29T00:12:32.610Z,0.14
2023-11-29T00:14:59.608Z,0.17
2023-11-29T00:17:27.528Z,0.19
2023-11-29T00:19:54.667Z,0.21
2023-11-29T00:22:21.668Z,0.22
2023-11-29T00:24:49.093Z,0.24
2023-11-29T00:27:17.624Z,0.26
2023-11-29T00:29:45.790Z,0.30
2023-11-29T00:32:12.974Z,0.33
2023-11-29T00:34:39.921Z,0.30
2023-11-29T00:37:06.928Z,0.28
2023-11-29T00:39:34.054Z,0.24
2023-11-29T00:42:01.349Z,0.23
2023-11-29T00:44:28.384Z,0.21
2023-11-29T00:46:56.214Z,0.19
2023-11-29T00:49:23.469Z,0.19
2023-11-29T00:51:50.406Z,0.21
2023-11-29T00:54:17.537Z,0.23
2023-11-29T00:56:44.529Z,0.26
2023-11-29T00:59:11.640Z,0.29
2023-11-29T01:01:38.600Z,0.34
2023-11-29T01:04:05.684Z,0.37
2023-11-29T01:06:32.773Z,0.44
2023-11-29T01:08:59.772Z,0.50
2023-11-29T01:11:26.677Z,0.53
2023-11-29T01:13:53.630Z,0.58
2023-11-29T01:16:20.674Z,0.64
2023-11-29T01:18:47.912Z,0.64
2023-11-29T01:21:25.124Z,0.64
2023-11-29T01:23:56.428Z,0.63
2023-11-29T01:26:23.420Z,0.63
2023-11-29T01:28:50.375Z,0.64
2023-11-29T01:31:19.792Z,0.64
2023-11-29T01:33:46.682Z,0.66
2023-11-29T01:36:14.380Z,0.70
2023-11-29T01:38:41.374Z,0.73
2023-11-29T01:41:08.430Z,0.75
2023-11-29T01:43:35.352Z,0.77
2023-11-29T01:46:02.724Z,0.78
2023-11-29T01:48:30.238Z,0.79
2023-11-29T01:50:58.612Z,0.81
2023-11-29T01:53:31.062Z,0.83
2023-11-29T01:55:59.391Z,0.83
2023-11-29T01:58:28.103Z,0.84
2023-11-29T02:00:56.261Z,0.86
2023-11-29T02:03:23.816Z,0.89
2023-11-29T02:05:52.034Z,0.91
2023-11-29T02:08:19.647Z,0.92
2023-11-29T02:10:47.997Z,0.95
2023-11-29T02:13:15.259Z,0.97
2023-11-29T02:15:42.171Z,1.00
2023-11-29T02:18:09.881Z,1.02
2023-11-29T02:20:37.030Z,1.03
2023-11-29T02:23:18.021Z,1.08
2023-11-29T02:25:44.910Z,1.10
2023-11-29T02:28:11.852Z,1.12
2023-11-29T02:30:38.722Z,1.13
2023-11-29T02:33:05.850Z,1.19
2023-11-29T02:35:32.835Z,1.18
2023-11-29T02:37:59.896Z,1.17
2023-11-29T02:40:26.779Z,1.17
2023-11-29T02:42:53.643Z,1.18
2023-11-29T02:45:20.814Z,1.20
2023-11-29T02:47:48.007Z,1.18
2023-11-29T02:50:15.976Z,1.20
2023-11-29T02:52:42.921Z,1.19
2023-11-29T02:55:09.872Z,1.24
2023-11-29T02:57:36.892Z,1.20
2023-11-29T03:00:04.438Z,1.20
2023-11-29T03:02:31.627Z,1.21
2023-11-29T03:04:58.667Z,1.23
2023-11-29T03:07:25.545Z,1.23
2023-11-29T03:09:52.478Z,1.18
2023-11-29T03:12:19.372Z,1.16
2023-11-29T03:14:46.338Z,1.14
2023-11-29T03:17:13.363Z,1.09
2023-11-29T03:19:40.349Z,1.07
2023-11-29T03:22:07.593Z,1.05
2023-11-29T03:24:34.480Z,1.06
2023-11-29T03:27:01.394Z,1.10
2023-11-29T03:29:28.263Z,1.15
2023-11-29T03:31:55.241Z,1.19
2023-11-29T03:34:22.167Z,1.20
2023-11-29T03:36:49.113Z,1.25
2023-11-29T03:39:16.057Z,1.28
2023-11-29T03:41:43.096Z,1.31
2023-11-29T03:44:10.031Z,1.31
2023-11-29T03:46:36.967Z,1.31
2023-11-29T03:49:04.785Z,1.33
2023-11-29T03:51:38.111Z,1.34
2023-11-29T03:54:09.091Z,1.35
2023-11-29T03:56:35.981Z,1.32
2023-11-29T03:59:02.924Z,1.29
2023-11-29T04:01:33.895Z,1.30
2023-11-29T04:04:01.173Z,1.30
2023-11-29T04:06:29.411Z,1.33
2023-11-29T04:08:56.938Z,1.33
2023-11-29T04:11:24.465Z,1.33
2023-11-29T04:13:51.744Z,1.33
2023-11-29T04:16:29.152Z,1.30
2023-11-29T04:18:56.686Z,1.28
2023-11-29T04:21:29.243Z,1.29
2023-11-29T04:23:56.933Z,1.33
2023-11-29T04:26:35.071Z,1.35
2023-11-29T04:29:06.204Z,1.35
2023-11-29T04:31:33.656Z,1.36
2023-11-29T04:34:07.339Z,1.35
2023-11-29T04:36:42.011Z,1.35
2023-11-29T04:39:11.310Z,1.34
2023-11-29T04:41:38.221Z,1.30
2023-11-29T04:44:05.352Z,1.27
2023-11-29T04:46:32.242Z,1.25
2023-11-29T04:48:59.272Z,1.24
2023-11-29T04:51:27.432Z,1.22
2023-11-29T04:53:54.640Z,1.24
2023-11-29T04:56:21.649Z,1.23
2023-11-29T04:58:48.598Z,1.24
2023-11-29T05:01:16.318Z,1.21
2023-11-29T05:03:43.394Z,1.19
2023-11-29T05:06:13.849Z,1.16
2023-11-29T05:08:40.788Z,1.15
2023-11-29T05:11:08.616Z,1.14
2023-11-29T05:13:35.873Z,1.14
2023-11-29T05:16:03.080Z,1.13
2023-11-29T05:18:30.201Z,1.13
2023-11-29T05:20:58.456Z,1.16
2023-11-29T05:23:28.222Z,1.23
2023-11-29T05:25:55.291Z,1.29
2023-11-29T05:28:28.271Z,1.33
2023-11-29T05:30:55.512Z,1.35
2023-11-29T05:33:23.892Z,1.34
2023-11-29T05:35:51.232Z,1.32
2023-11-29T05:38:18.538Z,1.31
2023-11-29T05:40:45.999Z,1.29
2023-11-29T05:43:12.988Z,1.30
2023-11-29T05:45:39.846Z,1.30
2023-11-29T05:48:07.064Z,1.31
2023-11-29T05:50:34.326Z,1.30
2023-11-29T05:53:01.279Z,1.32
2023-11-29T05:55:28.990Z,1.32
2023-11-29T05:57:55.942Z,1.31
2023-11-29T06:00:28.352Z,1.29
2023-11-29T06:03:01.361Z,1.31
2023-11-29T06:05:29.786Z,1.30
2023-11-29T06:07:58.489Z,1.30
2023-11-29T06:10:26.536Z,1.30
2023-11-29T06:12:53.992Z,1.31
2023-11-29T06:15:21.269Z,1.31
2023-11-29T06:17:48.704Z,1.36
2023-11-29T06:20:20.168Z,1.39
2023-11-29T06:22:47.790Z,1.43
2023-11-29T06:25:15.931Z,1.44
2023-11-29T06:27:46.357Z,1.49
2023-11-29T06:30:14.085Z,1.50
2023-11-29T06:32:43.450Z,1.49
2023-11-29T06:35:14.439Z,1.45
2023-11-29T06:37:46.901Z,1.49
2023-11-29T06:40:18.582Z,1.49
2023-11-29T06:42:46.188Z,1.47
2023-11-29T06:45:13.460Z,1.46
2023-11-29T06:47:41.058Z,1.39
2023-11-29T06:50:09.610Z,1.35
2023-11-29T06:52:37.592Z,1.29
2023-11-29T06:55:05.023Z,1.26
2023-11-29T06:57:32.090Z,1.23
2023-11-29T06:59:59.618Z,1.23
2023-11-29T07:02:26.849Z,1.26
2023-11-29T07:04:53.937Z,1.29
2023-11-29T07:07:21.144Z,1.31
2023-11-29T07:09:48.237Z,1.35
2023-11-29T07:12:15.259Z,1.35
2023-11-29T07:14:43.586Z,1.35
2023-11-29T07:17:12.770Z,1.31
2023-11-29T07:19:42.140Z,1.29
2023-11-29T07:22:09.341Z,1.27
2023-11-29T07:24:36.397Z,1.25
2023-11-29T07:27:03.573Z,1.23
2023-11-29T07:29:32.403Z,1.24
2023-11-29T07:31:59.890Z,1.20
2023-11-29T07:34:26.983Z,1.18
2023-11-29T07:36:54.199Z,1.17
2023-11-29T07:39:21.339Z,1.20
2023-11-29T07:41:49.323Z,1.28
2023-11-29T07:44:16.744Z,1.29
2023-11-29T07:46:43.921Z,1.32
2023-11-29T07:49:14.356Z,1.34
2023-11-29T07:51:41.699Z,1.38
2023-11-29T07:54:08.738Z,1.30
2023-11-29T07:56:35.871Z,1.26
2023-11-29T07:59:02.887Z,1.20
2023-11-29T08:01:29.981Z,1.15
2023-11-29T08:03:57.104Z,1.10
2023-11-29T08:06:24.212Z,1.06
2023-11-29T08:08:51.513Z,1.02
2023-11-29T08:11:18.683Z,0.96
2023-11-29T08:13:45.766Z,0.93
2023-11-29T08:16:12.838Z,0.86
2023-11-29T08:18:40.098Z,0.83
2023-11-29T08:21:07.426Z,0.78
2023-11-29T08:23:34.435Z,0.81
2023-11-29T08:26:01.787Z,0.88
2023-11-29T08:28:28.882Z,0.91
2023-11-29T08:30:56.027Z,0.93
2023-11-29T08:33:23.413Z,0.95
2023-11-29T08:35:50.570Z,1.03
2023-11-29T08:38:17.999Z,1.08
2023-11-29T08:40:45.220Z,1.14
2023-11-29T08:43:19.456Z,1.20
2023-11-29T08:45:50.894Z,1.29
2023-11-29T08:48:18.456Z,1.33
2023-11-29T08:50:46.245Z,1.39
2023-11-29T08:53:14.524Z,1.44
2023-11-29T08:55:44.106Z,1.47
2023-11-29T08:58:11.570Z,1.53
2023-11-29T09:00:38.620Z,1.55
2023-11-29T09:03:06.668Z,1.57
2023-11-29T09:05:33.674Z,1.63
2023-11-29T09:08:00.847Z,1.69
2023-11-29T09:10:27.975Z,1.74
2023-11-29T09:12:55.258Z,1.78
2023-11-29T09:15:22.456Z,1.85
2023-11-29T09:17:49.688Z,1.95
2023-11-29T09:20:16.812Z,2.10
2023-11-29T09:22:43.811Z,2.22
2023-11-29T09:25:12.442Z,2.36
2023-11-29T09:27:41.222Z,2.47
2023-11-29T09:30:08.384Z,2.60
2023-11-29T09:32:36.528Z,2.60
2023-11-29T09:35:05.507Z,2.56
2023-11-29T09:37:32.479Z,2.51
2023-11-29T09:39:59.474Z,2.47
2023-11-29T09:42:30.995Z,2.47
2023-11-29T09:45:00.144Z,2.57
2023-11-29T09:47:27.702Z,2.71
2023-11-29T09:49:56.767Z,2.84
2023-11-29T09:52:25.449Z,2.92
2023-11-29T09:54:52.855Z,2.91
2023-11-29T09:57:19.989Z,2.73
2023-11-29T09:59:47.141Z,2.67
2023-11-29T10:02:14.212Z,2.67
2023-11-29T10:04:41.670Z,2.71
2023-11-29T10:07:10.199Z,2.76
2023-11-29T10:09:40.568Z,2.88
2023-11-29T10:12:09.329Z,3.03
2023-11-29T10:14:42.026Z,3.14
2023-11-29T10:17:28.823Z,3.19
2023-11-29T10:19:57.088Z,3.21
2023-11-29T10:22:25.438Z,3.32
2023-11-29T10:24:53.928Z,3.36
2023-11-29T10:27:20.991Z,3.39
2023-11-29T10:29:48.387Z,3.35
2023-11-29T10:32:18.668Z,3.36
2023-11-29T10:34:48.541Z,3.37
2023-11-29T10:37:15.675Z,3.39
2023-11-29T10:39:46.457Z,3.38
2023-11-29T10:42:14.401Z,3.39
2023-11-29T10:44:42.253Z,3.49
2023-11-29T10:47:20.759Z,3.63
2023-11-29T10:49:58.395Z,3.73
2023-11-29T10:52:26.504Z,3.77
2023-11-29T10:54:54.692Z,3.76
2023-11-29T10:57:30.214Z,3.74
2023-11-29T11:00:15.153Z,3.68
2023-11-29T11:02:48.378Z,3.60
2023-11-29T11:05:22.963Z,3.58
2023-11-29T11:07:50.434Z,3.58
2023-11-29T11:10:23.564Z,3.50
2023-11-29T11:12:51.271Z,3.50
2023-11-29T11:15:29.877Z,3.50
2023-11-29T11:18:03.008Z,3.49
2023-11-29T11:20:53.298Z,3.54
2023-11-29T11:23:23.115Z,3.59
2023-11-29T11:25:54.426Z,3.60
2023-11-29T11:28:38.962Z,3.58
2023-11-29T11:31:10.912Z,3.58
2023-11-29T11:33:53.215Z,3.58
2023-11-29T11:36:24.881Z,3.58
2023-11-29T11:38:52.598Z,3.54
2023-11-29T11:41:20.039Z,3.50
2023-11-29T11:43:48.248Z,3.45
2023-11-29T11:46:17.320Z,3.45
2023-11-29T11:48:47.613Z,3.51
2023-11-29T11:51:14.756Z,3.56
2023-11-29T11:53:43.068Z,3.71
2023-11-29T11:56:20.445Z,3.88
2023-11-29T11:58:48.598Z,3.95
2023-11-29T12:01:16.132Z,4.09
2023-11-29T12:03:43.461Z,4.10
2023-11-29T12:06:11.300Z,4.07
2023-11-29T12:08:39.329Z,4.05
2023-11-29T12:11:09.433Z,4.05
2023-11-29T12:13:38.053Z,3.99
2023-11-29T12:16:18.879Z,3.94
2023-11-29T12:18:46.432Z,3.80
2023-11-29T12:21:15.145Z,3.76
2023-11-29T12:23:47.963Z,3.71
2023-11-29T12:26:16.885Z,3.67
2023-11-29T12:28:43.953Z,3.59
2023-11-29T12:31:13.646Z,3.51
2023-11-29T12:33:41.029Z,3.39
2023-11-29T12:36:11.375Z,3.36
2023-11-29T12:38:38.884Z,3.37
2023-11-29T12:41:06.123Z,3.39
2023-11-29T12:43:33.353Z,3.35
2023-11-29T12:46:00.684Z,3.39
2023-11-29T12:48:27.958Z,3.40
2023-11-29T12:50:56.349Z,3.43
2023-11-29T12:53:23.576Z,3.43
2023-11-29T12:55:50.802Z,3.42
2023-11-29T12:58:18.214Z,3.32
2023-11-29T13:00:46.896Z,3.42
2023-11-29T13:03:14.693Z,3.44
2023-11-29T13:05:42.026Z,3.40
2023-11-29T13:08:09.616Z,3.46
2023-11-29T13:10:36.765Z,3.49
2023-11-29T13:13:04.592Z,3.51
2023-11-29T13:15:31.720Z,3.37
2023-11-29T13:17:58.755Z,3.33
2023-11-29T13:20:25.807Z,3.32
2023-11-29T13:22:53.380Z,3.38
2023-11-29T13:25:20.629Z,3.34
2023-11-29T13:27:47.748Z,3.29
2023-11-29T13:30:15.060Z,3.15
2023-11-29T13:32:42.271Z,3.09
2023-11-29T13:35:12.288Z,3.10
2023-11-29T13:37:39.913Z,3.14
2023-11-29T13:40:07.895Z,3.15
2023-11-29T13:42:35.154Z,3.11
2023-11-29T13:45:07.675Z,3.08
2023-11-29T13:47:36.764Z,3.00
2023-11-29T13:50:04.828Z,2.96
2023-11-29T13:52:32.170Z,2.95
2023-11-29T13:54:59.154Z,2.89
2023-11-29T13:57:26.088Z,2.75
2023-11-29T13:59:53.179Z,2.64
2023-11-29T14:02:20.465Z,2.61
2023-11-29T14:04:49.351Z,2.59
2023-11-29T14:07:17.313Z,2.56
2023-11-29T14:09:44.403Z,2.60
2023-11-29T14:12:11.451Z,2.66
2023-11-29T14:14:38.681Z,2.63
2023-11-29T14:17:07.046Z,2.65
2023-11-29T14:19:33.976Z,2.65
2023-11-29T14:22:01.528Z,2.60
2023-11-29T14:24:28.699Z,2.54
2023-11-29T14:26:57.907Z,2.55
2023-11-29T14:29:26.231Z,2.52
2023-11-29T14:31:53.760Z,2.46
2023-11-29T14:34:22.615Z,2.43
2023-11-29T14:36:55.249Z,2.34
2023-11-29T14:39:22.953Z,2.32
2023-11-29T14:41:50.349Z,2.29
2023-11-29T14:44:18.006Z,2.23
2023-11-29T14:46:45.078Z,2.19
2023-11-29T14:49:16.786Z,2.14
2023-11-29T14:51:51.979Z,2.07
2023-11-29T14:54:19.056Z,2.07
2023-11-29T14:56:46.285Z,2.00
2023-11-29T14:59:13.294Z,1.93
2023-11-29T15:01:40.458Z,1.86
2023-11-29T15:04:07.536Z,1.82
2023-11-29T15:06:34.535Z,1.75
2023-11-29T15:09:01.506Z,1.69
2023-11-29T15:11:28.718Z,1.69
2023-11-29T15:13:55.753Z,1.63
2023-11-29T15:16:22.965Z,1.62
2023-11-29T15:18:50.133Z,1.58
2023-11-29T15:21:17.303Z,1.54
2023-11-29T15:23:44.554Z,1.50
2023-11-29T15:26:11.807Z,1.46
2023-11-29T15:28:38.809Z,1.43
2023-11-29T15:31:06.377Z,1.37
2023-11-29T15:33:33.509Z,1.37
2023-11-29T15:36:01.419Z,1.35
2023-11-29T15:38:28.753Z,1.32
2023-11-29T15:40:56.038Z,1.28
2023-11-29T15:43:23.199Z,1.24
2023-11-29T15:45:50.413Z,1.19
2023-11-29T15:48:17.837Z,1.15
2023-11-29T15:50:44.952Z,1.09
2023-11-29T15:53:12.394Z,1.05
2023-11-29T15:55:39.606Z,1.03
2023-11-29T15:58:06.750Z,0.99
2023-11-29T16:00:33.925Z,0.96
2023-11-29T16:03:01.121Z,0.92
2023-11-29T16:05:28.515Z,0.86
2023-11-29T16:07:55.470Z,0.83
2023-11-29T16:10:22.564Z,0.78
2023-11-29T16:12:50.297Z,0.74
2023-11-29T16:15:17.715Z,0.71
2023-11-29T16:17:44.956Z,0.68
2023-11-29T16:20:12.434Z,0.63
2023-11-29T16:22:39.436Z,0.61
2023-11-29T16:25:07.362Z,0.54
2023-11-29T16:27:37.989Z,0.55
2023-11-29T16:30:06.751Z,0.52
2023-11-29T16:32:34.803Z,0.48
2023-11-29T16:35:02.174Z,0.43
2023-11-29T16:37:30.754Z,0.37
2023-11-29T16:39:58.654Z,0.34
2023-11-29T16:42:26.350Z,0.32
2023-11-29T16:44:54.167Z,0.28
2023-11-29T16:47:21.605Z,0.25
2023-11-29T16:49:48.805Z,0.19
2023-11-29T16:52:15.842Z,0.15
2023-11-29T16:54:42.864Z,0.12
2023-11-29T16:57:10.314Z,0.10
2023-11-29T16:59:39.578Z,0.06
2023-11-29T17:02:06.926Z,0.02
2023-11-29T17:04:34.140Z,-0.02
2023-11-29T17:07:01.319Z,-0.05
2023-11-29T17:09:29.144Z,-0.06
2023-11-29T17:11:57.693Z,-0.08
2023-11-29T17:14:25.261Z,-0.08
2023-11-29T17:16:52.651Z,-0.10
2023-11-29T17:19:19.755Z,-0.11
2023-11-29T17:21:46.879Z,-0.16
2023-11-29T17:24:14.119Z,-0.12
2023-11-29T17:26:43.557Z,-0.12
2023-11-29T17:29:10.821Z,-0.14
2023-11-29T17:31:37.998Z,-0.12
2023-11-29T17:34:05.123Z,-0.14
2023-11-29T17:36:32.651Z,-0.15
2023-11-29T17:39:00.461Z,-0.15
2023-11-29T17:41:28.050Z,-0.14
2023-11-29T17:43:55.210Z,-0.14
2023-11-29T17:46:22.637Z,-0.14
2023-11-29T17:48:49.941Z,-0.14
2023-11-29T17:51:17.199Z,-0.14
2023-11-29T17:53:44.467Z,-0.14
2023-11-29T17:56:11.795Z,-0.16
2023-11-29T17:58:39.458Z,-0.20
2023-11-29T18:01:07.195Z,-0.23
2023-11-29T18:03:36.154Z,-0.26
2023-11-29T18:06:04.586Z,-0.29
2023-11-29T18:08:31.799Z,-0.33
2023-11-29T18:10:59.013Z,-0.40
2023-11-29T18:13:26.713Z,-0.37
2023-11-29T18:15:55.348Z,-0.42
2023-11-29T18:18:22.486Z,-0.44
2023-11-29T18:20:54.403Z,-0.47
2023-11-29T18:23:22.291Z,-0.50
2023-11-29T18:25:58.799Z,-0.53
2023-11-29T18:28:29.233Z,-0.56
2023-11-29T18:30:56.999Z,-0.57
2023-11-29T18:33:24.714Z,-0.59
2023-11-29T18:35:51.901Z,-0.61
2023-11-29T18:38:18.965Z,-0.65
2023-11-29T18:40:46.210Z,-0.65
2023-11-29T18:43:13.388Z,-0.66
2023-11-29T18:45:40.482Z,-0.68
2023-11-29T18:48:10.685Z,-0.72
2023-11-29T18:50:38.699Z,-0.73
2023-11-29T18:53:05.862Z,-0.75
2023-11-29T18:55:33.910Z,-0.77
2023-11-29T18:58:01.031Z,-0.77
2023-11-29T19:00:28.448Z,-0.79
2023-11-29T19:02:55.794Z,-0.81
2023-11-29T19:05:23.866Z,-0.81
2023-11-29T19:07:51.100Z,-0.81
2023-11-29T19:10:18.864Z,-0.83
2023-11-29T19:12:46.236Z,-0.84
2023-11-29T19:15:13.603Z,-0.84
2023-11-29T19:17:40.918Z,-0.82
2023-11-29T19:20:08.504Z,-0.84
2023-11-29T19:22:35.598Z,-0.84
2023-11-29T19:25:02.902Z,-0.83
2023-11-29T19:27:30.046Z,-0.82
2023-11-29T19:29:57.093Z,-0.82
2023-11-29T19:32:24.471Z,-0.82
2023-11-29T19:34:51.621Z,-0.82
2023-11-29T19:37:18.666Z,-0.82
2023-11-29T19:39:45.940Z,-0.81
2023-11-29T19:42:13.284Z,-0.82
2023-11-29T19:44:42.461Z,-0.83
2023-11-29T19:47:15.235Z,-0.85
2023-11-29T19:49:43.718Z,-0.87
2023-11-29T19:52:11.173Z,-0.86
2023-11-29T19:54:38.680Z,-0.86
2023-11-29T19:57:06.031Z,-0.88
2023-11-29T19:59:33.056Z,-0.86
2023-11-29T20:02:00.035Z,-0.89
2023-11-29T20:04:27.143Z,-0.88
2023-11-29T20:06:54.259Z,-0.89
2023-11-29T20:09:22.300Z,-0.89
2023-11-29T20:11:49.855Z,-0.90
2023-11-29T20:14:22.321Z,-0.90
2023-11-29T20:16:53.206Z,-0.90
2023-11-29T20:19:20.636Z,-0.88
2023-11-29T20:21:47.761Z,-0.87
2023-11-29T20:24:15.287Z,-0.88
2023-11-29T20:26:42.293Z,-0.88
2023-11-29T20:29:09.274Z,-0.87
2023-11-29T20:31:37.031Z,-0.89
2023-11-29T20:34:07.517Z,-0.88
2023-11-29T20:36:39.121Z,-0.88
2023-11-29T20:39:06.356Z,-0.91
2023-11-29T20:41:33.432Z,-0.88
2023-11-29T20:44:00.516Z,-0.87
2023-11-29T20:46:27.724Z,-0.85
2023-11-29T20:48:54.850Z,-0.82
2023-11-29T20:51:21.926Z,-0.81
2023-11-29T20:53:52.706Z,-0.77
2023-11-29T20:56:19.790Z,-0.74
2023-11-29T20:58:46.818Z,-0.71
2023-11-29T21:01:13.801Z,-0.69
2023-11-29T21:03:41.069Z,-0.65
2023-11-29T21:06:08.564Z,-0.65
2023-11-29T21:08:35.659Z,-0.61
2023-11-29T21:11:02.664Z,-0.57
2023-11-29T21:13:29.674Z,-0.55
2023-11-29T21:15:56.725Z,-0.52
2023-11-29T21:18:24.003Z,-0.50
2023-11-29T21:20:53.271Z,-0.47
2023-11-29T21:23:21.425Z,-0.44
2023-11-29T21:25:48.522Z,-0.41
2023-11-29T21:28:15.558Z,-0.35
2023-11-29T21:30:42.527Z,-0.32
2023-11-29T21:33:09.779Z,-0.31
2023-11-29T21:35:36.802Z,-0.28
2023-11-29T21:38:06.530Z,-0.27
2023-11-29T21:40:33.663Z,-0.24
2023-11-29T21:43:00.882Z,-0.23
2023-11-29T21:45:28.000Z,-0.22
2023-11-29T21:47:55.302Z,-0.19
2023-11-29T21:50:22.541Z,-0.17
2023-11-29T21:52:49.582Z,-0.17
2023-11-29T21:55:16.691Z,-0.15
2023-11-29T21:57:43.925Z,-0.13
2023-11-29T22:00:11.973Z,-0.09
2023-11-29T22:02:39.150Z,-0.09
2023-11-29T22:05:06.642Z,-0.06
2023-11-29T22:07:33.703Z,-0.05
2023-11-29T22:10:01.055Z,-0.04
2023-11-29T22:12:28.315Z,-0.03
2023-11-29T22:14:55.308Z,-0.02
2023-11-29T22:17:22.452Z,-0.02
2023-11-29T22:19:49.447Z,-0.02
2023-11-29T22:22:16.561Z,0.02
2023-11-29T22:24:43.710Z,0.01
2023-11-29T22:27:10.764Z,0.02
2023-11-29T22:29:38.039Z,0.01
2023-11-29T22:32:05.852Z,0.00
2023-11-29T22:34:33.009Z,-0.03
2023-11-29T22:37:00.047Z,-0.04
2023-11-29T22:39:27.074Z,-0.04
2023-11-29T22:41:54.155Z,-0.06
2023-11-29T22:44:21.235Z,-0.06
2023-11-29T22:46:48.235Z,-0.07
2023-11-29T22:49:15.268Z,-0.06
2023-11-29T22:51:42.394Z,-0.07
2023-11-29T22:54:09.480Z,-0.12
2023-11-29T22:56:38.043Z,-0.16
2023-11-29T22:59:08.298Z,-0.18
2023-11-29T23:01:35.623Z,-0.23
2023-11-29T23:04:04.081Z,-0.29
2023-11-29T23:06:33.005Z,-0.33
2023-11-29T23:09:00.692Z,-0.33
2023-11-29T23:11:27.868Z,-0.34
2023-11-29T23:13:55.597Z,-0.35
2023-11-29T23:16:22.863Z,-0.33
2023-11-29T23:18:50.037Z,-0.35
2023-11-29T23:21:17.498Z,-0.41
2023-11-29T23:23:45.526Z,-0.44
2023-11-29T23:26:13.830Z,-0.43
2023-11-29T23:28:40.959Z,-0.43
2023-11-29T23:31:08.790Z,-0.43
2023-11-29T23:33:36.236Z,-0.44
2023-11-29T23:36:05.381Z,-0.46
2023-11-29T23:38:34.101Z,-0.48
2023-11-29T23:41:01.084Z,-0.49
2023-11-29T23:43:28.131Z,-0.54
2023-11-29T23:45:55.056Z,-0.53
2023-11-29T23:48:22.251Z,-0.51
2023-11-29T23:50:49.339Z,-0.50
2023-11-29T23:53:16.329Z,-0.49
2023-11-29T23:55:43.294Z,-0.49
2023-11-29T23:58:10.371Z,-0.47
